Time,TemperatureF,DewpointF,PressureIn,WindDirection,WindDirectionDegrees,WindSpeedMPH,WindSpeedGustMPH,Humidity,HourlyPrecipIn,Conditions,Clouds,dailyrainin,SoftwareType,DateUTC
2015-05-25 00:01:00,49.0,48.0,-100.00,SE,132,8.0,14.0,95,-99.99,,,-99.99,,2015-05-25 07:01:00,
2015-05-25 00:31:00,49.0,48.0,-100.00,SE,132,8.0,14.0,95,-99.99,,,-99.99,,2015-05-25 07:31:00,
2015-05-25 00:43:00,49.0,48.0,-100.00,SE,132,8.0,14.0,95,-99.99,,,-99.99,,2015-05-25 07:43:00,
2015-05-25 00:51:00,49.0,48.0,-100.00,SE,132,8.0,14.0,95,-99.99,,,-99.99,,2015-05-25 07:51:00,
2015-05-25 01:01:00,49.0,48.0,-100.00,ESE,123,9.0,14.0,98,-99.99,,,-99.99,,2015-05-25 08:01:00,
2015-05-25 01:31:00,49.0,48.0,-100.00,ESE,123,9.0,14.0,98,-99.99,,,-99.99,,2015-05-25 08:31:00,
2015-05-25 01:42:00,49.0,48.0,-100.00,ESE,123,9.0,14.0,98,-99.99,,,-99.99,,2015-05-25 08:42:00,
2015-05-25 01:51:00,49.0,48.0,-100.00,ESE,123,9.0,14.0,98,-99.99,,,-99.99,,2015-05-25 08:51:00,
2015-05-25 02:01:00,51.0,48.0,-100.00,SE,135,7.0,12.0,90,-99.99,,,-99.99,,2015-05-25 09:01:00,
2015-05-25 02:31:00,51.0,48.0,-100.00,SE,135,7.0,12.0,90,-99.99,,,-99.99,,2015-05-25 09:31:00,
2015-05-25 02:42:00,51.0,48.0,-100.00,SE,135,7.0,12.0,90,-99.99,,,-99.99,,2015-05-25 09:42:00,
2015-05-25 02:51:00,51.0,48.0,-100.00,SE,135,7.0,12.0,90,-99.99,,,-99.99,,2015-05-25 09:51:00,
2015-05-25 03:01:00,54.0,48.0,-100.00,NW,313,2.0,10.0,80,-99.99,,,-99.99,,2015-05-25 10:01:00,
2015-05-25 03:31:00,54.0,48.0,-100.00,NW,313,2.0,10.0,80,-99.99,,,-99.99,,2015-05-25 10:31:00,
2015-05-25 03:42:00,54.0,48.0,-100.00,NW,313,2.0,10.0,80,-99.99,,,-99.99,,2015-05-25 10:42:00,
2015-05-25 03:52:00,54.0,48.0,-100.00,NW,313,2.0,10.0,80,-99.99,,,-99.99,,2015-05-25 10:52:00,
2015-05-25 04:01:00,52.0,47.0,-100.00,NNE,28,9.0,11.0,84,-99.99,,,-99.99,,2015-05-25 11:01:00,
2015-05-25 04:32:00,52.0,47.0,-100.00,NNE,28,9.0,11.0,84,-99.99,,,-99.99,,2015-05-25 11:32:00,
2015-05-25 04:42:00,52.0,47.0,-100.00,NNE,28,9.0,11.0,84,-99.99,,,-99.99,,2015-05-25 11:42:00,
2015-05-25 04:52:00,52.0,47.0,-100.00,NNE,28,9.0,11.0,84,-99.99,,,-99.99,,2015-05-25 11:52:00,
2015-05-25 05:01:00,52.0,48.0,-100.00,NNE,21,7.0,10.0,85,-99.99,,,-99.99,,2015-05-25 12:01:00,
2015-05-25 05:32:00,52.0,48.0,-100.00,NNE,21,7.0,10.0,85,-99.99,,,-99.99,,2015-05-25 12:32:00,
2015-05-25 05:42:00,52.0,48.0,-100.00,NNE,21,7.0,10.0,85,-99.99,,,-99.99,,2015-05-25 12:42:00,
2015-05-25 05:51:00,52.0,48.0,-100.00,NNE,21,7.0,10.0,85,-99.99,,,-99.99,,2015-05-25 12:51:00,
2015-05-25 06:01:00,53.0,48.0,-100.00,ENE,68,5.0,10.0,83,-99.99,,,-99.99,,2015-05-25 13:01:00,
2015-05-25 06:31:00,53.0,48.0,-100.00,ENE,68,5.0,10.0,83,-99.99,,,-99.99,,2015-05-25 13:31:00,
2015-05-25 06:42:00,53.0,48.0,-100.00,ENE,68,5.0,10.0,83,-99.99,,,-99.99,,2015-05-25 13:42:00,
2015-05-25 06:52:00,53.0,48.0,-100.00,ENE,68,5.0,10.0,83,-99.99,,,-99.99,,2015-05-25 13:52:00,
2015-05-25 07:32:00,55.0,49.0,-100.00,East,87,5.0,9.0,81,-99.99,,,-99.99,,2015-05-25 14:32:00,